createdAt,value
2023-03-20T00:00:48.677Z,13.27
2023-03-20T00:02:23.885Z,15.80
2023-03-20T00:03:57.828Z,13.15
2023-03-20T00:05:33.497Z,13.48
2023-03-20T00:07:06.033Z,12.38
2023-03-20T00:08:39.851Z,18.20
2023-03-20T00:10:13.262Z,14.18
2023-03-20T00:11:50.119Z,12.60
2023-03-20T00:13:28.684Z,18.02
2023-03-20T00:15:04.946Z,12.93
2023-03-20T00:16:40.527Z,12.45
2023-03-20T00:18:18.471Z,15.40
2023-03-20T00:19:51.584Z,15.23
2023-03-20T00:21:26.642Z,13.95
2023-03-20T00:22:59.876Z,15.75
2023-03-20T00:24:33.148Z,14.70
2023-03-20T00:26:05.950Z,18.45
2023-03-20T00:27:39.051Z,22.25
2023-03-20T00:29:21.673Z,16.60
2023-03-20T00:30:54.969Z,18.60
2023-03-20T00:32:27.447Z,20.83
2023-03-20T00:34:05.888Z,17.48
2023-03-20T00:35:39.304Z,15.70
2023-03-20T00:37:14.342Z,15.27
2023-03-20T00:38:47.866Z,12.32
2023-03-20T00:40:21.850Z,12.98
2023-03-20T00:41:58.279Z,15.35
2023-03-20T00:43:31.857Z,16.25
2023-03-20T00:45:06.437Z,16.98
2023-03-20T00:46:41.046Z,19.05
2023-03-20T00:48:16.885Z,18.15
2023-03-20T00:49:51.286Z,17.50
2023-03-20T00:51:24.748Z,17.27
2023-03-20T00:53:00.859Z,15.63
2023-03-20T00:54:34.139Z,18.08
2023-03-20T00:56:08.439Z,17.17
2023-03-20T00:57:44.144Z,16.25
2023-03-20T00:59:21.149Z,14.00
2023-03-20T01:00:55.014Z,14.15
2023-03-20T01:02:30.054Z,14.07
2023-03-20T01:04:03.584Z,13.63
2023-03-20T01:05:37.012Z,14.00
2023-03-20T01:07:15.342Z,16.58
2023-03-20T01:08:50.066Z,11.32
2023-03-20T01:10:34.392Z,16.10
2023-03-20T01:12:08.611Z,13.57
2023-03-20T01:13:42.599Z,14.90
2023-03-20T01:15:21.277Z,11.38
2023-03-20T01:16:54.871Z,13.55
2023-03-20T01:18:28.601Z,14.27
2023-03-20T01:20:00.848Z,12.50
2023-03-20T01:21:34.074Z,12.90
2023-03-20T01:23:07.525Z,12.57
2023-03-20T01:24:42.371Z,17.38
2023-03-20T01:26:31.589Z,12.82
2023-03-20T01:28:13.111Z,14.38
2023-03-20T01:29:46.916Z,10.52
2023-03-20T01:31:20.906Z,13.13
2023-03-20T01:32:55.157Z,14.27
2023-03-20T01:34:29.158Z,13.30
2023-03-20T01:36:02.079Z,12.15
2023-03-20T01:37:35.998Z,13.77
2023-03-20T01:39:11.819Z,13.02
2023-03-20T01:40:53.662Z,13.02
2023-03-20T01:42:27.693Z,15.45
2023-03-20T01:44:11.012Z,12.88
2023-03-20T01:45:56.056Z,15.13
2023-03-20T01:47:30.526Z,12.15
2023-03-20T01:49:30.238Z,16.13
2023-03-20T01:51:08.213Z,13.93
2023-03-20T01:52:40.798Z,12.32
2023-03-20T01:54:17.209Z,13.55
2023-03-20T01:56:01.568Z,11.40
2023-03-20T01:57:45.585Z,13.90
2023-03-20T01:59:23.204Z,13.95
2023-03-20T02:00:57.267Z,12.85
2023-03-20T02:02:32.456Z,15.70
2023-03-20T02:04:09.464Z,10.52
2023-03-20T02:06:02.988Z,15.95
2023-03-20T02:08:04.317Z,13.75
2023-03-20T02:09:36.936Z,14.70
2023-03-20T02:11:18.064Z,16.05
2023-03-20T02:12:52.241Z,16.20
2023-03-20T02:14:34.463Z,12.57
2023-03-20T02:16:22.177Z,13.15
2023-03-20T02:18:24.835Z,12.80
2023-03-20T02:20:07.223Z,11.68
2023-03-20T02:22:27.863Z,15.48
2023-03-20T02:24:34.175Z,13.65
2023-03-20T02:26:27.053Z,12.55
2023-03-20T02:28:21.800Z,9.52
2023-03-20T02:30:20.747Z,12.00
2023-03-20T02:32:25.461Z,11.68
2023-03-20T02:34:34.091Z,13.38
2023-03-20T02:36:33.441Z,11.90
2023-03-20T02:38:27.510Z,12.75
2023-03-20T02:40:13.317Z,12.30
2023-03-20T02:41:55.631Z,15.27
2023-03-20T02:43:36.493Z,15.05
2023-03-20T02:45:18.890Z,10.05
2023-03-20T02:47:01.106Z,12.88
2023-03-20T02:48:40.126Z,11.32
2023-03-20T02:50:20.171Z,13.40
2023-03-20T02:52:02.416Z,11.65
2023-03-20T02:53:49.974Z,21.17
2023-03-20T02:55:31.918Z,16.15
2023-03-20T02:57:09.587Z,14.00
2023-03-20T02:58:50.749Z,13.10
2023-03-20T03:00:29.815Z,13.23
2023-03-20T03:02:08.340Z,13.75
2023-03-20T03:03:48.235Z,12.15
2023-03-20T03:05:26.724Z,13.13
2023-03-20T03:07:02.136Z,10.15
2023-03-20T03:08:39.600Z,13.95
2023-03-20T03:10:21.750Z,16.73
2023-03-20T03:11:58.842Z,16.05
2023-03-20T03:13:37.681Z,13.05
2023-03-20T03:15:17.641Z,15.40
2023-03-20T03:16:53.351Z,17.05
2023-03-20T03:18:27.799Z,21.23
2023-03-20T03:20:05.759Z,23.15
2023-03-20T03:21:41.692Z,25.92
2023-03-20T03:23:22.394Z,18.08
2023-03-20T03:24:56.706Z,16.40
2023-03-20T03:26:36.004Z,16.58
2023-03-20T03:28:17.508Z,24.20
2023-03-20T03:29:56.074Z,15.57
2023-03-20T03:31:31.766Z,15.90
2023-03-20T03:33:17.261Z,12.48
2023-03-20T03:34:50.821Z,13.70
2023-03-20T03:36:37.522Z,22.92
2023-03-20T03:38:29.808Z,77.93
2023-03-20T03:40:17.744Z,46.60
2023-03-20T03:41:55.986Z,24.02
2023-03-20T03:43:35.765Z,14.60
2023-03-20T03:45:14.546Z,13.15
2023-03-20T03:46:53.814Z,12.77
2023-03-20T03:48:32.492Z,16.23
2023-03-20T03:50:11.901Z,13.10
2023-03-20T03:51:50.615Z,16.17
2023-03-20T03:53:27.999Z,16.55
2023-03-20T03:55:06.075Z,97.80
2023-03-20T03:56:42.079Z,26.85
2023-03-20T03:58:20.270Z,16.13
2023-03-20T03:59:57.699Z,16.98
2023-03-20T04:01:35.375Z,15.82
2023-03-20T04:03:10.237Z,15.77
2023-03-20T04:04:47.199Z,18.10
2023-03-20T04:06:22.388Z,16.67
2023-03-20T04:08:00.197Z,17.48
2023-03-20T04:09:33.711Z,18.42
2023-03-20T04:11:07.214Z,16.45
2023-03-20T04:12:45.634Z,27.90
2023-03-20T04:14:23.244Z,30.83
2023-03-20T04:15:56.807Z,12.30
2023-03-20T04:17:32.692Z,10.73
2023-03-20T04:19:06.888Z,10.68
2023-03-20T04:20:40.203Z,12.80
2023-03-20T04:22:13.783Z,11.95
2023-03-20T04:23:47.550Z,10.75
2023-03-20T04:25:25.171Z,16.70
2023-03-20T04:26:59.774Z,12.05
2023-03-20T04:28:33.683Z,13.90
2023-03-20T04:30:31.310Z,10.05
2023-03-20T04:32:33.890Z,14.85
2023-03-20T04:34:16.574Z,12.80
2023-03-20T04:36:04.804Z,15.52
2023-03-20T04:37:38.952Z,45.10
2023-03-20T04:39:14.040Z,18.65
2023-03-20T04:40:48.461Z,23.42
2023-03-20T04:42:21.737Z,23.42
2023-03-20T04:43:56.650Z,20.83
2023-03-20T04:45:32.126Z,17.35
2023-03-20T04:47:06.738Z,16.42
2023-03-20T04:48:42.732Z,18.67
2023-03-20T04:50:17.710Z,19.73
2023-03-20T04:51:50.237Z,17.35
2023-03-20T04:53:32.864Z,14.98
2023-03-20T04:55:07.284Z,17.27
2023-03-20T04:56:40.782Z,18.10
2023-03-20T04:58:20.986Z,18.52
2023-03-20T04:59:54.824Z,16.95
2023-03-20T05:01:30.333Z,16.95
2023-03-20T05:03:04.107Z,16.38
2023-03-20T05:04:37.798Z,19.85
2023-03-20T05:06:11.694Z,27.35
2023-03-20T05:07:47.584Z,23.77
2023-03-20T05:09:27.561Z,15.50
2023-03-20T05:11:02.195Z,17.88
2023-03-20T05:12:53.937Z,20.48
2023-03-20T05:14:29.951Z,18.77
2023-03-20T05:16:21.755Z,24.83
2023-03-20T05:18:07.741Z,24.92
2023-03-20T05:19:53.021Z,16.65
2023-03-20T05:21:49.241Z,31.77
2023-03-20T05:23:45.278Z,35.58
2023-03-20T05:25:45.642Z,77.88
2023-03-20T05:27:30.892Z,97.13
2023-03-20T05:29:31.320Z,64.43
2023-03-20T05:31:19.570Z,35.20
2023-03-20T05:33:23.556Z,36.25
2023-03-20T05:35:20.518Z,28.60
2023-03-20T05:36:58.990Z,27.92
2023-03-20T05:38:42.579Z,21.77
2023-03-20T05:40:42.866Z,38.15
2023-03-20T05:42:26.520Z,30.02
2023-03-20T05:44:11.867Z,21.73
2023-03-20T05:46:04.122Z,33.22
2023-03-20T05:47:37.496Z,16.30
2023-03-20T05:49:30.252Z,17.42
2023-03-20T05:51:22.307Z,25.85
2023-03-20T05:53:03.526Z,19.50
2023-03-20T05:54:55.004Z,16.83
2023-03-20T05:56:45.589Z,20.83
2023-03-20T05:58:30.537Z,19.45
2023-03-20T06:00:24.136Z,19.90
2023-03-20T06:02:17.961Z,23.75
2023-03-20T06:04:03.470Z,25.55
2023-03-20T06:06:11.110Z,22.33
2023-03-20T06:07:45.138Z,30.92
2023-03-20T06:09:21.501Z,30.63
2023-03-20T06:10:55.005Z,31.70
2023-03-20T06:12:28.301Z,23.05
2023-03-20T06:14:02.007Z,23.67
2023-03-20T06:15:43.339Z,25.55
2023-03-20T06:17:21.717Z,24.35
2023-03-20T06:18:59.632Z,28.08
2023-03-20T06:33:40.351Z,29.35
2023-03-20T06:35:15.369Z,22.70
2023-03-20T06:36:52.348Z,19.75
2023-03-20T06:38:28.098Z,21.77
2023-03-20T06:40:02.009Z,22.27
2023-03-20T06:41:36.396Z,19.15
2023-03-20T06:43:13.784Z,20.08
2023-03-20T06:44:53.442Z,22.00
2023-03-20T06:46:45.700Z,21.08
2023-03-20T06:48:22.051Z,20.60
2023-03-20T06:49:56.920Z,30.08
2023-03-20T06:51:30.129Z,19.73
2023-03-20T06:53:03.759Z,18.63
2023-03-20T06:54:40.088Z,17.70
2023-03-20T06:56:13.592Z,20.25
2023-03-20T06:57:47.686Z,19.38
2023-03-20T06:59:24.068Z,21.23
2023-03-20T07:01:02.751Z,23.67
2023-03-20T07:02:36.210Z,21.80
2023-03-20T07:04:09.468Z,23.02
2023-03-20T07:05:51.311Z,20.17
2023-03-20T07:07:26.270Z,21.75
2023-03-20T07:08:59.474Z,22.15
2023-03-20T07:10:33.147Z,22.65
2023-03-20T07:12:06.514Z,23.83
2023-03-20T07:13:41.718Z,20.17
2023-03-20T07:15:26.803Z,21.27
2023-03-20T07:17:00.303Z,23.45
2023-03-20T07:18:33.892Z,19.90
2023-03-20T07:20:08.683Z,18.90
2023-03-20T07:21:43.481Z,18.55
2023-03-20T07:23:17.397Z,31.40
2023-03-20T07:24:50.778Z,20.05
2023-03-20T07:26:25.824Z,18.83
2023-03-20T07:27:59.331Z,18.60
2023-03-20T07:29:34.410Z,18.95
2023-03-20T07:31:11.272Z,20.20
2023-03-20T07:32:45.275Z,20.15
2023-03-20T07:34:19.702Z,21.95
2023-03-20T07:35:56.548Z,18.67
2023-03-20T07:37:31.633Z,19.75
2023-03-20T07:39:09.079Z,21.30
2023-03-20T07:40:43.918Z,28.95
2023-03-20T07:42:21.613Z,35.55
2023-03-20T07:44:04.618Z,21.17
2023-03-20T07:46:03.398Z,24.70
2023-03-20T07:47:36.630Z,27.30
2023-03-20T07:49:11.526Z,22.17
2023-03-20T07:50:45.337Z,21.30
2023-03-20T07:52:19.918Z,19.88
2023-03-20T07:53:54.532Z,21.90
2023-03-20T07:55:27.699Z,13.18
2023-03-20T07:57:01.533Z,15.25
2023-03-20T07:58:34.727Z,16.10
2023-03-20T08:00:10.048Z,22.05
2023-03-20T08:01:46.003Z,18.73
2023-03-20T08:03:19.335Z,17.55
2023-03-20T08:04:52.812Z,24.63
2023-03-20T08:06:26.224Z,25.42
2023-03-20T08:07:59.395Z,19.73
2023-03-20T08:09:33.976Z,19.98
2023-03-20T08:11:07.311Z,16.02
2023-03-20T08:12:40.540Z,19.33
2023-03-20T08:14:14.115Z,17.08
2023-03-20T08:15:48.415Z,17.77
2023-03-20T08:17:22.121Z,14.23
2023-03-20T08:19:01.133Z,16.83
2023-03-20T08:20:34.442Z,15.32
2023-03-20T08:22:07.646Z,13.57
2023-03-20T08:23:41.163Z,13.73
2023-03-20T08:25:15.619Z,12.85
2023-03-20T08:26:48.986Z,12.93
2023-03-20T08:28:26.645Z,16.38
2023-03-20T08:30:04.572Z,11.05
2023-03-20T08:31:37.735Z,10.52
2023-03-20T08:33:11.089Z,22.27
2023-03-20T08:34:44.435Z,14.38
2023-03-20T08:36:20.507Z,15.05
2023-03-20T08:37:53.831Z,8.02
2023-03-20T08:39:27.057Z,12.43
2023-03-20T08:41:01.605Z,11.23
2023-03-20T08:42:34.854Z,10.43
2023-03-20T08:44:08.029Z,8.82
2023-03-20T08:45:41.449Z,11.43
2023-03-20T08:47:14.661Z,9.18
2023-03-20T08:48:48.079Z,10.85
2023-03-20T08:50:21.238Z,14.45
2023-03-20T08:51:54.517Z,11.02
2023-03-20T08:53:27.731Z,16.15
2023-03-20T08:55:02.120Z,12.52
2023-03-20T08:56:36.769Z,12.85
2023-03-20T08:58:09.942Z,17.05
2023-03-20T08:59:43.060Z,15.73
2023-03-20T09:01:16.529Z,19.90
2023-03-20T09:02:49.696Z,17.25
2023-03-20T09:04:23.016Z,18.25
2023-03-20T09:05:56.113Z,25.92
2023-03-20T09:07:29.548Z,13.82
2023-03-20T09:09:03.782Z,18.13
2023-03-20T09:10:36.961Z,18.17
2023-03-20T09:12:11.447Z,14.88
2023-03-20T09:13:44.749Z,17.20
2023-03-20T09:15:18.033Z,16.35
2023-03-20T09:16:51.478Z,21.25
2023-03-20T09:18:25.444Z,12.18
2023-03-20T09:19:58.764Z,15.10
2023-03-20T09:21:31.867Z,14.48
2023-03-20T09:23:05.003Z,23.67
2023-03-20T09:24:38.365Z,22.42
2023-03-20T09:26:11.629Z,16.27
2023-03-20T09:27:46.611Z,13.40
2023-03-20T09:29:19.906Z,14.57
2023-03-20T09:30:57.083Z,18.02
2023-03-20T09:32:30.698Z,19.65
2023-03-20T09:34:03.936Z,17.40
2023-03-20T09:35:37.750Z,19.90
2023-03-20T09:37:11.130Z,9.02
2023-03-20T09:38:44.553Z,10.00
2023-03-20T09:40:27.111Z,7.85
2023-03-20T09:42:06.176Z,12.70
2023-03-20T09:44:02.417Z,10.05
2023-03-20T09:45:44.929Z,13.98
2023-03-20T09:47:24.806Z,10.52
2023-03-20T09:49:08.836Z,8.65
2023-03-20T09:50:50.402Z,7.53
2023-03-20T09:52:27.941Z,53.38
2023-03-20T09:54:05.523Z,8.60
2023-03-20T09:55:41.756Z,13.90
2023-03-20T09:57:21.735Z,6.18
2023-03-20T09:58:58.508Z,10.23
2023-03-20T10:00:35.944Z,9.25
2023-03-20T10:02:17.335Z,8.57
2023-03-20T10:03:55.447Z,14.43
2023-03-20T10:05:31.224Z,9.10
2023-03-20T10:07:07.156Z,12.05
2023-03-20T10:08:43.090Z,10.05
2023-03-20T10:10:20.494Z,8.82
2023-03-20T10:12:24.646Z,9.80
2023-03-20T10:14:08.573Z,10.07
2023-03-20T10:15:48.108Z,6.07
2023-03-20T10:17:34.727Z,9.52
2023-03-20T10:19:17.548Z,5.05
2023-03-20T10:20:58.113Z,7.60
2023-03-20T10:22:35.924Z,8.20
2023-03-20T10:24:19.661Z,6.38
2023-03-20T10:25:57.694Z,8.73
2023-03-20T10:27:36.375Z,11.60
2023-03-20T10:29:21.578Z,6.40
2023-03-20T10:31:06.731Z,7.00
2023-03-20T10:32:47.275Z,4.72
2023-03-20T10:34:34.255Z,5.13
2023-03-20T10:36:23.243Z,6.95
2023-03-20T10:38:14.822Z,5.95
2023-03-20T10:39:56.360Z,4.30
2023-03-20T10:41:33.510Z,3.38
2023-03-20T10:43:16.116Z,6.10
2023-03-20T10:44:54.892Z,5.85
2023-03-20T10:46:31.757Z,7.70
2023-03-20T10:48:14.063Z,4.38
2023-03-20T10:49:51.837Z,6.22
2023-03-20T10:51:32.938Z,5.00
2023-03-20T10:53:07.889Z,6.65
2023-03-20T10:54:44.093Z,5.78
2023-03-20T10:56:24.472Z,4.18
2023-03-20T10:58:03.333Z,3.63
2023-03-20T10:59:41.863Z,4.18
2023-03-20T11:01:17.401Z,5.90
2023-03-20T11:02:50.945Z,6.68
2023-03-20T11:04:24.229Z,4.53
2023-03-20T11:06:09.597Z,5.13
2023-03-20T11:07:43.838Z,5.18
2023-03-20T11:09:20.917Z,6.10
2023-03-20T11:11:02.009Z,4.43
2023-03-20T11:12:36.868Z,4.72
2023-03-20T11:14:18.723Z,4.05
2023-03-20T11:15:54.163Z,4.18
2023-03-20T11:17:30.281Z,3.28
2023-03-20T11:19:08.569Z,5.65
2023-03-20T11:20:47.445Z,5.43
2023-03-20T11:22:26.822Z,4.93
2023-03-20T11:24:00.418Z,6.28
2023-03-20T11:25:36.015Z,7.38
2023-03-20T11:27:11.342Z,4.03
2023-03-20T11:28:49.734Z,7.50
2023-03-20T11:30:23.206Z,3.95
2023-03-20T11:32:04.892Z,7.57
2023-03-20T11:33:42.322Z,6.65
2023-03-20T11:35:22.690Z,6.72
2023-03-20T11:37:13.338Z,6.25
2023-03-20T11:38:47.592Z,6.45
2023-03-20T11:40:25.067Z,5.68
2023-03-20T11:42:00.344Z,5.28
2023-03-20T11:43:39.413Z,3.55
2023-03-20T11:45:18.096Z,5.05
2023-03-20T11:46:57.657Z,7.15
2023-03-20T11:48:40.922Z,5.28
2023-03-20T11:50:31.399Z,4.53
2023-03-20T11:52:13.957Z,10.38
2023-03-20T11:54:01.686Z,4.93
2023-03-20T11:55:36.623Z,4.80
2023-03-20T11:57:32.252Z,6.55
2023-03-20T11:59:14.522Z,5.90
2023-03-20T12:00:52.265Z,5.32
2023-03-20T12:02:27.114Z,3.75
2023-03-20T12:04:06.090Z,5.40
2023-03-20T12:05:39.921Z,3.92
2023-03-20T12:07:17.937Z,5.22
2023-03-20T12:08:59.007Z,4.25
2023-03-20T12:10:39.636Z,5.72
2023-03-20T12:12:24.802Z,6.50
2023-03-20T12:14:01.605Z,4.47
2023-03-20T12:15:38.929Z,5.00
2023-03-20T12:17:36.313Z,4.93
2023-03-20T12:19:18.231Z,6.65
2023-03-20T12:21:01.032Z,7.03
2023-03-20T12:22:39.308Z,4.93
2023-03-20T12:24:16.666Z,4.43
2023-03-20T12:25:55.277Z,6.10
2023-03-20T12:27:34.852Z,4.13
2023-03-20T12:29:17.754Z,4.18
2023-03-20T12:31:02.177Z,4.60
2023-03-20T12:32:41.831Z,7.25
2023-03-20T12:34:23.233Z,5.70
2023-03-20T12:35:59.484Z,6.60
2023-03-20T12:37:33.738Z,5.65
2023-03-20T12:39:12.527Z,10.63
2023-03-20T12:40:47.264Z,5.75
2023-03-20T12:42:34.109Z,6.78
2023-03-20T12:44:32.397Z,4.85
2023-03-20T12:46:14.353Z,3.85
2023-03-20T12:48:01.955Z,4.07
2023-03-20T12:49:49.042Z,6.00
2023-03-20T12:51:42.454Z,9.23
2023-03-20T12:53:37.571Z,6.93
2023-03-20T12:55:27.044Z,5.75
2023-03-20T12:57:09.940Z,6.57
2023-03-20T12:58:48.653Z,8.43
2023-03-20T13:00:31.028Z,7.63
2023-03-20T13:02:19.223Z,10.43
2023-03-20T13:04:16.328Z,6.13
2023-03-20T13:05:57.201Z,7.13
2023-03-20T13:07:52.529Z,5.85
2023-03-20T13:09:44.745Z,5.28
2023-03-20T13:11:29.727Z,6.47
2023-03-20T13:13:15.684Z,4.82
2023-03-20T13:14:56.309Z,5.78
2023-03-20T13:16:41.741Z,4.32
2023-03-20T13:18:20.808Z,5.63
2023-03-20T13:20:08.676Z,11.27
2023-03-20T13:21:54.039Z,12.77
2023-03-20T13:23:36.465Z,7.40
2023-03-20T13:25:24.542Z,4.57
2023-03-20T13:27:04.425Z,14.45
2023-03-20T13:28:48.556Z,5.65
2023-03-20T13:30:31.252Z,4.97
2023-03-20T13:32:15.801Z,5.05
2023-03-20T13:33:53.971Z,8.88
2023-03-20T13:35:41.163Z,3.97
2023-03-20T13:37:24.375Z,7.75
2023-03-20T13:39:05.015Z,7.50
2023-03-20T13:40:43.629Z,6.60
2023-03-20T13:42:22.689Z,7.57
2023-03-20T13:44:01.348Z,4.97
2023-03-20T13:45:38.516Z,4.45
2023-03-20T13:47:14.927Z,4.97
2023-03-20T13:48:48.223Z,10.73
2023-03-20T13:50:33.164Z,5.43
2023-03-20T13:52:12.222Z,5.47
2023-03-20T13:53:57.211Z,5.47
2023-03-20T13:55:38.964Z,7.28
2023-03-20T13:57:23.748Z,7.50
2023-03-20T13:59:12.456Z,4.63
2023-03-20T14:00:53.082Z,5.88
2023-03-20T14:02:36.841Z,5.90
2023-03-20T14:30:32.580Z,7.45
2023-03-20T14:32:31.320Z,7.97
2023-03-20T14:34:17.960Z,14.55
2023-03-20T14:35:53.056Z,5.97
2023-03-20T14:37:32.379Z,8.43
2023-03-20T14:39:16.740Z,4.90
2023-03-20T14:40:57.925Z,5.38
2023-03-20T14:42:40.407Z,7.90
2023-03-20T14:44:32.192Z,6.93
2023-03-20T14:46:10.552Z,6.45
2023-03-20T14:47:54.218Z,8.30
2023-03-20T14:49:49.385Z,11.85
2023-03-20T14:51:30.065Z,8.35
2023-03-20T14:53:15.280Z,5.38
2023-03-20T14:54:54.238Z,5.13
2023-03-20T14:56:30.834Z,5.40
2023-03-20T14:58:06.626Z,6.40
2023-03-20T14:59:39.815Z,7.22
2023-03-20T15:01:19.838Z,9.73
2023-03-20T15:03:03.793Z,6.63
2023-03-20T15:04:39.550Z,6.47
2023-03-20T15:06:13.444Z,6.25
2023-03-20T15:07:46.632Z,8.90
2023-03-20T15:09:23.626Z,7.47
2023-03-20T15:11:00.184Z,7.25
2023-03-20T15:12:37.440Z,8.10
2023-03-20T15:14:12.288Z,8.05
2023-03-20T15:15:55.006Z,5.78
2023-03-20T15:17:35.692Z,8.90
2023-03-20T15:19:19.470Z,8.13
2023-03-20T15:20:52.706Z,7.70
2023-03-20T15:22:25.943Z,9.55
2023-03-20T15:23:59.895Z,10.10
2023-03-20T15:25:40.145Z,8.00
2023-03-20T15:27:16.625Z,9.23
2023-03-20T15:28:51.268Z,11.25
2023-03-20T15:30:25.356Z,12.73
2023-03-20T15:32:13.536Z,9.43
2023-03-20T15:33:47.452Z,8.45
2023-03-20T15:35:24.384Z,14.50
2023-03-20T15:36:58.999Z,16.92
2023-03-20T15:38:35.730Z,5.35
2023-03-20T15:40:15.045Z,9.18
2023-03-20T15:41:53.154Z,10.57
2023-03-20T15:43:27.870Z,9.63
2023-03-20T15:45:01.331Z,11.32
2023-03-20T15:46:34.498Z,11.57
2023-03-20T15:48:09.327Z,15.63
2023-03-20T15:49:43.294Z,17.55
2023-03-20T15:51:20.142Z,14.65
2023-03-20T15:52:53.895Z,9.00
2023-03-20T15:54:28.094Z,7.07
2023-03-20T15:56:17.353Z,6.95
2023-03-20T15:57:54.105Z,13.30
2023-03-20T15:59:30.712Z,24.95
2023-03-20T16:01:07.265Z,19.33
2023-03-20T16:02:41.306Z,18.95
2023-03-20T16:04:18.413Z,25.30
2023-03-20T16:05:53.647Z,38.10
2023-03-20T16:07:31.798Z,24.60
2023-03-20T16:09:09.401Z,26.90
2023-03-20T16:10:44.219Z,23.45
2023-03-20T16:12:18.860Z,25.10
2023-03-20T16:13:53.262Z,16.50
2023-03-20T16:15:31.437Z,30.00
2023-03-20T16:17:06.277Z,35.25
2023-03-20T16:18:41.752Z,31.02
2023-03-20T16:20:16.887Z,17.35
2023-03-20T16:21:53.453Z,32.45
2023-03-20T16:23:35.003Z,95.85
2023-03-20T16:25:15.597Z,62.38
2023-03-20T16:26:52.272Z,49.38
2023-03-20T16:28:27.215Z,20.40
2023-03-20T16:30:01.052Z,32.65
2023-03-20T16:31:36.357Z,37.67
2023-03-20T16:33:15.505Z,33.38
2023-03-20T16:34:52.373Z,30.80
2023-03-20T16:36:31.508Z,21.52
2023-03-20T16:38:16.699Z,16.73
2023-03-20T16:40:04.811Z,15.98
2023-03-20T16:41:40.197Z,13.18
2023-03-20T16:43:17.417Z,11.85
2023-03-20T16:44:56.606Z,15.43
2023-03-20T16:46:30.021Z,13.30
2023-03-20T16:48:25.442Z,9.30
2023-03-20T16:50:22.605Z,15.07
2023-03-20T16:51:59.724Z,18.63
2023-03-20T16:53:42.065Z,27.05
2023-03-20T16:55:19.581Z,23.67
2023-03-20T16:56:55.158Z,18.20
2023-03-20T16:58:33.174Z,19.75
2023-03-20T17:00:20.997Z,21.20
2023-03-20T17:01:59.796Z,19.48
2023-03-20T17:03:38.302Z,20.00
2023-03-20T17:05:14.421Z,20.63
2023-03-20T17:06:49.788Z,19.25
2023-03-20T17:08:32.341Z,22.13
2023-03-20T17:10:21.783Z,20.90
2023-03-20T17:12:02.727Z,37.75
2023-03-20T17:13:36.021Z,56.97
2023-03-20T17:15:11.011Z,70.65
2023-03-20T17:16:44.329Z,65.07
2023-03-20T17:18:17.793Z,60.95
2023-03-20T17:19:51.921Z,39.55
2023-03-20T17:21:25.149Z,36.83
2023-03-20T17:22:58.904Z,29.58
2023-03-20T17:24:32.090Z,26.55
2023-03-20T17:26:12.148Z,24.35
2023-03-20T17:27:45.855Z,19.40
2023-03-20T17:29:19.069Z,19.55
2023-03-20T17:30:53.318Z,24.17
2023-03-20T17:32:26.725Z,19.50
2023-03-20T17:33:59.852Z,17.15
2023-03-20T17:35:33.092Z,23.73
2023-03-20T17:37:07.704Z,17.30
2023-03-20T17:38:41.242Z,13.95
2023-03-20T17:40:19.224Z,13.05
2023-03-20T17:41:53.811Z,9.30
2023-03-20T17:43:26.927Z,14.43
2023-03-20T17:45:00.976Z,7.50
2023-03-20T17:46:49.789Z,8.35
2023-03-20T17:48:28.824Z,14.88
2023-03-20T17:50:02.092Z,24.15
2023-03-20T17:51:36.740Z,41.50
2023-03-20T17:53:16.125Z,54.65
2023-03-20T17:54:49.792Z,40.00
2023-03-20T17:56:23.458Z,44.55
2023-03-20T17:57:57.946Z,64.20
2023-03-20T17:59:31.458Z,75.93
2023-03-20T18:01:07.287Z,80.43
2023-03-20T18:02:40.910Z,80.00
2023-03-20T18:04:14.080Z,76.78
2023-03-20T18:05:49.036Z,73.72
2023-03-20T18:07:23.202Z,67.95
2023-03-20T18:08:57.760Z,52.00
2023-03-20T18:10:33.042Z,41.63
2023-03-20T18:12:06.845Z,44.83
2023-03-20T18:13:42.077Z,48.53
2023-03-20T18:15:15.382Z,47.55
2023-03-20T18:16:48.542Z,45.05
2023-03-20T18:18:23.958Z,41.13
2023-03-20T18:19:57.606Z,48.45
2023-03-20T18:21:31.069Z,51.25
2023-03-20T18:23:04.432Z,50.10
2023-03-20T18:24:39.910Z,45.63
2023-03-20T18:26:20.821Z,47.97
2023-03-20T18:27:54.505Z,61.85
2023-03-20T18:29:29.407Z,63.28
2023-03-20T18:31:02.700Z,55.97
2023-03-20T18:32:36.382Z,49.63
2023-03-20T18:34:09.620Z,50.17
2023-03-20T18:35:43.021Z,40.05
2023-03-20T18:37:16.231Z,52.95
2023-03-20T18:38:50.049Z,66.82
2023-03-20T18:40:26.091Z,64.88
2023-03-20T18:41:59.245Z,52.25
2023-03-20T18:43:32.478Z,58.88
2023-03-20T18:45:08.734Z,52.60
2023-03-20T18:46:42.527Z,41.42
2023-03-20T18:48:16.425Z,61.47
2023-03-20T18:49:49.628Z,57.75
2023-03-20T18:51:23.572Z,75.15
2023-03-20T18:52:58.322Z,64.65
2023-03-20T18:54:31.461Z,73.28
2023-03-20T18:56:05.465Z,68.38
2023-03-20T18:57:43.083Z,64.50
2023-03-20T18:59:16.542Z,63.45
2023-03-20T19:00:50.900Z,77.55
2023-03-20T19:02:24.070Z,74.53
2023-03-20T19:03:57.736Z,91.10
2023-03-20T19:05:31.625Z,77.93
2023-03-20T19:07:04.991Z,77.93
2023-03-20T19:08:38.926Z,60.20
2023-03-20T19:10:29.504Z,50.53
2023-03-20T19:12:02.622Z,34.58
2023-03-20T19:13:36.230Z,27.58
2023-03-20T19:15:10.735Z,25.85
2023-03-20T19:16:46.004Z,28.30
2023-03-20T19:18:21.145Z,28.27
2023-03-20T19:19:54.301Z,24.30
2023-03-20T19:21:27.499Z,24.00
2023-03-20T19:23:00.544Z,20.92
2023-03-20T19:24:33.680Z,20.15
2023-03-20T19:26:14.189Z,18.45
2023-03-20T19:27:47.501Z,16.70
2023-03-20T19:29:20.949Z,21.70
2023-03-20T19:30:55.381Z,19.80
2023-03-20T19:32:29.983Z,16.27
2023-03-20T19:34:03.480Z,19.02
2023-03-20T19:36:01.759Z,13.82
2023-03-20T19:37:30.598Z,17.00
2023-03-20T19:39:06.408Z,17.92
2023-03-20T19:40:43.298Z,18.70
2023-03-20T19:42:47.515Z,18.75
2023-03-20T19:44:10.052Z,17.80
2023-03-20T19:45:44.559Z,14.90
2023-03-20T19:47:17.710Z,15.30
2023-03-20T19:48:53.629Z,17.75
2023-03-20T19:50:34.028Z,17.77
2023-03-20T19:52:12.925Z,23.88
2023-03-20T19:53:47.147Z,19.70
2023-03-20T19:55:19.354Z,32.22
2023-03-20T19:56:52.611Z,26.23
2023-03-20T19:58:26.304Z,31.08
2023-03-20T20:00:40.078Z,23.48
2023-03-20T20:01:54.185Z,18.98
2023-03-20T20:03:29.216Z,18.25
2023-03-20T20:05:03.869Z,14.73
2023-03-20T20:06:39.796Z,15.32
2023-03-20T20:08:30.978Z,18.67
2023-03-20T20:10:08.603Z,13.30
2023-03-20T20:11:42.504Z,15.50
2023-03-20T20:13:19.192Z,21.95
2023-03-20T20:14:52.568Z,31.13
2023-03-20T20:16:26.300Z,22.27
2023-03-20T20:17:59.638Z,26.83
2023-03-20T20:19:32.830Z,17.25
2023-03-20T20:23:01.183Z,17.63
2023-03-20T20:24:35.166Z,20.15
2023-03-20T20:26:09.631Z,23.15
2023-03-20T20:27:43.346Z,43.40
2023-03-20T20:29:16.934Z,25.67
2023-03-20T20:30:52.117Z,22.88
2023-03-20T20:32:27.138Z,17.25
2023-03-20T20:34:51.175Z,16.90
2023-03-20T20:36:27.774Z,14.30
2023-03-20T20:38:33.508Z,15.82
2023-03-20T20:39:46.388Z,26.38
2023-03-20T20:41:20.070Z,17.20
2023-03-20T20:42:56.168Z,13.25
2023-03-20T20:44:29.535Z,23.60
2023-03-20T20:46:02.647Z,16.67
2023-03-20T20:47:36.997Z,14.75
2023-03-20T20:49:19.214Z,17.27
2023-03-20T20:50:53.373Z,14.95
2023-03-20T20:52:26.978Z,14.95
2023-03-20T20:54:01.735Z,20.30
2023-03-20T20:55:35.145Z,17.55
2023-03-20T20:57:08.500Z,17.23
2023-03-20T20:58:41.583Z,17.58
2023-03-20T21:00:16.604Z,26.60
2023-03-20T21:01:50.631Z,25.98
2023-03-20T21:03:23.799Z,23.75
2023-03-20T21:04:57.279Z,25.23
2023-03-20T21:07:03.474Z,28.42
2023-03-20T21:08:24.426Z,95.95
2023-03-20T21:09:58.975Z,40.00
2023-03-20T21:11:32.596Z,29.02
2023-03-20T21:13:05.758Z,24.27
2023-03-20T21:14:38.983Z,25.42
2023-03-20T21:16:14.597Z,36.00
2023-03-20T21:17:59.951Z,23.73
2023-03-20T21:19:36.108Z,12.82
2023-03-20T21:21:11.637Z,13.00
2023-03-20T21:22:44.939Z,11.68
2023-03-20T21:24:35.024Z,15.68
2023-03-20T21:26:10.300Z,13.25
2023-03-20T21:27:43.483Z,12.68
2023-03-20T21:29:16.648Z,10.05
2023-03-20T21:31:20.484Z,34.45
2023-03-20T21:32:43.293Z,19.42
2023-03-20T21:34:16.609Z,46.88
2023-03-20T21:35:51.956Z,69.57
2023-03-20T21:38:28.379Z,44.67
2023-03-20T21:39:17.801Z,27.98
2023-03-20T21:40:50.935Z,21.08
2023-03-20T21:42:25.820Z,27.50
2023-03-20T21:44:01.217Z,15.35
2023-03-20T21:46:30.186Z,15.00
2023-03-20T21:48:13.936Z,14.07
2023-03-20T21:50:19.137Z,19.60
2023-03-20T21:56:02.672Z,28.17
2023-03-20T21:57:49.235Z,34.75
2023-03-20T22:02:37.188Z,20.00
2023-03-20T22:10:30.711Z,15.85
2023-03-20T22:16:16.688Z,12.73
2023-03-20T22:17:59.891Z,14.63
2023-03-20T22:21:52.154Z,15.27